Airfield :
LOGIN :

Register | Disclaimer

   EN    FR    IT 

 










Legend :    VFR   Marginal VFR   IFR   Intensive IFR   Very Intensive IFR
Visi :
Ceiling :
>= 8 km
>= 3000ft
5 to 8 km
1000 to 3000 ft
1500m to 5 km
500 to 1000 ft
800 to 1500m
200 to 500 ft
< 800m
< 200 ft
Symbols :   Thunderstorms  Fog  Heavy snow  Heavy precipitations  Wind > 20 kt
SIGMETs :     Misc.  Thunderstorms  Icing  Turbulence  Mountain Waves  Volcanic Ashes






- Airport Elevation : 1910 ft
- IATA code : RDZ


LFCR - Rodez

CURRENT METAR :
  • 201400Z AUTO 14031G44KT CAVOK 10/05 Q1003 NOSIG

EXPIRED METARs :
  • 201330Z AUTO 13030G41KT 9999 FEW025 BKN140 10/05 Q1004 NOSIG
  • 201300Z AUTO 13024G35KT 9999 FEW024 BKN150 10/04 Q1004 NOSIG
  • 201230Z AUTO 13026G42KT CAVOK 10/05 Q1005 NOSIG
  • 201200Z AUTO 12029G42KT CAVOK 10/04 Q1005 NOSIG
  • 201130Z AUTO 12024G39KT 9999 FEW026 10/04 Q1006 NOSIG

TAF AMD TAF LFCR
Valid from the 20 at 13:00 until the 21 at 12:00 UTC


201330Z 2013/2112 12022G35KT CAVOK
TEMPO 2013/2017 14030G45KT
PROB30
TEMPO 2017/2020 BKN013
BECMG 2100/2102 16010KT BKN040
BECMG 2104/2106 23010KT
PROB30
TEMPO 2023/2110 4000 -RA BKN013



MET'MAP, your aeronautical weather chart ! - Copyright ORBIFLY December 2007 - Disclaimer

ORBIFLY MET'MAP TEAM :

Programming & Development : Alexandra Zaïnal
Concept & original design : Baudouin d'Aumeries
Assistance for programming : Marc-Olivier Méhu
Technical & hardware support : Manuel Goepfert

Contact : metmap@orbifly.com




SOURCES & CREDITS :

   NOAA